Terminal Aerodrome Forecast
Issued by NWS

Home | Current Version | Previous Version | Text Only | Print | Product List | Glossary On
Versions: 1 2 3 4 5 6 7 8 9 10 11 12 13 14 15 16 17
000
FTUS46 KSEW 200634 AAA
TAFOLM
TAF AMD
KOLM 200634Z 2007/2106 19013G25KT 4SM RA BR SCT010 BKN013 OVC028
     FM200900 20006KT 4SM -RA BR SCT005 BKN008 OVC015
     FM201700 VRB03KT P6SM VCSH SCT010 BKN050
     FM202200 VRB03KT P6SM SCT025 BKN050
     FM210500 03002KT 1/4SM FG VV001=

USA.gov is the U.S. government's official web portal to all federal, state and local government web resources and services.